sensor_id;sensor_type;location;lat;lon;timestamp;P1;durP1;ratioP1;P2;durP2;ratioP2
46755;SDS011;32506;52.826;-1.192;2022-08-20T00:00:47;2.65;;;0.80;;
46755;SDS011;32506;52.826;-1.192;2022-08-20T00:05:47;3.55;;;0.70;;
46755;SDS011;32506;52.826;-1.192;2022-08-20T00:08:19;2.38;;;0.70;;
46755;SDS011;32506;52.826;-1.192;2022-08-20T00:10:47;2.55;;;0.77;;
46755;SDS011;32506;52.826;-1.192;2022-08-20T00:13:15;2.63;;;0.60;;
46755;SDS011;32506;52.826;-1.192;2022-08-20T00:15:49;2.45;;;0.40;;
46755;SDS011;32506;52.826;-1.192;2022-08-20T00:18:15;3.38;;;1.02;;
46755;SDS011;32506;52.826;-1.192;2022-08-20T00:20:43;3.63;;;0.63;;
46755;SDS011;32506;52.826;-1.192;2022-08-20T00:23:12;1.25;;;0.73;;
46755;SDS011;32506;52.826;-1.192;2022-08-20T00:25:37;2.25;;;0.70;;
46755;SDS011;32506;52.826;-1.192;2022-08-20T00:28:03;3.55;;;0.60;;
46755;SDS011;32506;52.826;-1.192;2022-08-20T00:30:31;1.45;;;0.50;;
46755;SDS011;32506;52.826;-1.192;2022-08-20T00:33:00;1.52;;;0.50;;
46755;SDS011;32506;52.826;-1.192;2022-08-20T00:35:32;2.03;;;0.63;;
46755;SDS011;32506;52.826;-1.192;2022-08-20T00:37:59;2.35;;;0.70;;
46755;SDS011;32506;52.826;-1.192;2022-08-20T00:40:27;1.77;;;0.60;;
46755;SDS011;32506;52.826;-1.192;2022-08-20T00:42:57;3.33;;;1.23;;
46755;SDS011;32506;52.826;-1.192;2022-08-20T00:45:25;2.10;;;0.63;;
46755;SDS011;32506;52.826;-1.192;2022-08-20T00:47:53;2.22;;;0.60;;
46755;SDS011;32506;52.826;-1.192;2022-08-20T00:50:21;2.72;;;0.70;;
46755;SDS011;32506;52.826;-1.192;2022-08-20T00:52:51;1.90;;;0.65;;
46755;SDS011;32506;52.826;-1.192;2022-08-20T00:55:19;2.53;;;0.60;;
46755;SDS011;32506;52.826;-1.192;2022-08-20T00:57:47;3.15;;;0.80;;
46755;SDS011;32506;52.826;-1.192;2022-08-20T01:02:56;1.95;;;0.65;;
46755;SDS011;32506;52.826;-1.192;2022-08-20T01:05:22;2.28;;;0.70;;
46755;SDS011;32506;52.826;-1.192;2022-08-20T01:07:51;2.53;;;0.63;;
46755;SDS011;32506;52.826;-1.192;2022-08-20T01:10:23;2.95;;;0.70;;
46755;SDS011;32506;52.826;-1.192;2022-08-20T01:12:52;2.42;;;0.52;;
46755;SDS011;32506;52.826;-1.192;2022-08-20T01:15:21;3.95;;;1.00;;
46755;SDS011;32506;52.826;-1.192;2022-08-20T01:17:50;2.25;;;0.90;;
46755;SDS011;32506;52.826;-1.192;2022-08-20T01:20:37;2.25;;;0.80;;
46755;SDS011;32506;52.826;-1.192;2022-08-20T01:23:08;1.35;;;0.57;;
46755;SDS011;32506;52.826;-1.192;2022-08-20T01:25:59;4.20;;;0.50;;
46755;SDS011;32506;52.826;-1.192;2022-08-20T01:28:32;2.17;;;1.17;;
46755;SDS011;32506;52.826;-1.192;2022-08-20T01:31:02;2.22;;;0.75;;
46755;SDS011;32506;52.826;-1.192;2022-08-20T01:33:30;1.42;;;0.60;;
46755;SDS011;32506;52.826;-1.192;2022-08-20T01:35:56;1.73;;;0.85;;
46755;SDS011;32506;52.826;-1.192;2022-08-20T01:38:22;2.42;;;0.70;;
46755;SDS011;32506;52.826;-1.192;2022-08-20T01:43:16;3.00;;;0.60;;
46755;SDS011;32506;52.826;-1.192;2022-08-20T01:45:42;3.10;;;0.90;;
46755;SDS011;32506;52.826;-1.192;2022-08-20T01:48:07;2.55;;;0.75;;
46755;SDS011;32506;52.826;-1.192;2022-08-20T01:50:33;3.22;;;1.05;;
46755;SDS011;32506;52.826;-1.192;2022-08-20T01:55:54;2.85;;;0.90;;
46755;SDS011;32506;52.826;-1.192;2022-08-20T01:58:19;2.97;;;0.70;;
46755;SDS011;32506;52.826;-1.192;2022-08-20T02:00:45;5.40;;;0.90;;
46755;SDS011;32506;52.826;-1.192;2022-08-20T02:03:11;2.35;;;0.70;;
46755;SDS011;32506;52.826;-1.192;2022-08-20T02:05:36;3.35;;;0.73;;
46755;SDS011;32506;52.826;-1.192;2022-08-20T02:08:02;4.72;;;1.17;;
46755;SDS011;32506;52.826;-1.192;2022-08-20T02:10:28;1.52;;;0.70;;
46755;SDS011;32506;52.826;-1.192;2022-08-20T02:12:56;5.35;;;1.05;;
46755;SDS011;32506;52.826;-1.192;2022-08-20T02:15:22;3.83;;;0.82;;
46755;SDS011;32506;52.826;-1.192;2022-08-20T02:17:47;4.63;;;1.05;;
46755;SDS011;32506;52.826;-1.192;2022-08-20T02:20:18;2.50;;;0.77;;
46755;SDS011;32506;52.826;-1.192;2022-08-20T02:22:54;4.30;;;0.90;;
46755;SDS011;32506;52.826;-1.192;2022-08-20T02:25:24;4.13;;;1.15;;
46755;SDS011;32506;52.826;-1.192;2022-08-20T02:27:53;3.53;;;0.88;;
46755;SDS011;32506;52.826;-1.192;2022-08-20T02:30:21;2.65;;;0.80;;
46755;SDS011;32506;52.826;-1.192;2022-08-20T02:35:17;3.90;;;1.00;;
46755;SDS011;32506;52.826;-1.192;2022-08-20T02:37:43;2.70;;;0.85;;
46755;SDS011;32506;52.826;-1.192;2022-08-20T02:40:11;5.07;;;1.23;;
46755;SDS011;32506;52.826;-1.192;2022-08-20T02:42:39;4.72;;;1.02;;
46755;SDS011;32506;52.826;-1.192;2022-08-20T02:45:06;3.33;;;1.00;;
46755;SDS011;32506;52.826;-1.192;2022-08-20T02:47:35;1.85;;;0.80;;
46755;SDS011;32506;52.826;-1.192;2022-08-20T02:50:01;3.65;;;0.82;;
46755;SDS011;32506;52.826;-1.192;2022-08-20T02:52:28;4.90;;;1.35;;
46755;SDS011;32506;52.826;-1.192;2022-08-20T02:54:54;2.20;;;0.90;;
46755;SDS011;32506;52.826;-1.192;2022-08-20T02:57:19;5.22;;;1.10;;
46755;SDS011;32506;52.826;-1.192;2022-08-20T02:59:45;2.80;;;1.00;;
46755;SDS011;32506;52.826;-1.192;2022-08-20T03:02:12;4.20;;;0.70;;
46755;SDS011;32506;52.826;-1.192;2022-08-20T03:04:38;4.50;;;0.70;;
46755;SDS011;32506;52.826;-1.192;2022-08-20T03:07:04;5.00;;;0.90;;
46755;SDS011;32506;52.826;-1.192;2022-08-20T03:09:30;2.88;;;0.73;;
46755;SDS011;32506;52.826;-1.192;2022-08-20T03:11:56;2.67;;;0.73;;
46755;SDS011;32506;52.826;-1.192;2022-08-20T03:14:21;2.53;;;0.65;;
46755;SDS011;32506;52.826;-1.192;2022-08-20T03:16:47;3.28;;;0.77;;
46755;SDS011;32506;52.826;-1.192;2022-08-20T03:19:13;2.28;;;0.70;;
46755;SDS011;32506;52.826;-1.192;2022-08-20T03:21:38;5.40;;;0.90;;
46755;SDS011;32506;52.826;-1.192;2022-08-20T03:24:04;3.85;;;0.93;;
46755;SDS011;32506;52.826;-1.192;2022-08-20T03:26:29;3.75;;;0.82;;
46755;SDS011;32506;52.826;-1.192;2022-08-20T03:28:55;2.40;;;0.80;;
46755;SDS011;32506;52.826;-1.192;2022-08-20T03:31:21;4.60;;;1.00;;
46755;SDS011;32506;52.826;-1.192;2022-08-20T03:33:46;3.65;;;1.00;;
46755;SDS011;32506;52.826;-1.192;2022-08-20T03:36:12;4.72;;;0.80;;
46755;SDS011;32506;52.826;-1.192;2022-08-20T03:38:37;3.38;;;0.60;;
46755;SDS011;32506;52.826;-1.192;2022-08-20T03:41:03;2.25;;;0.80;;
46755;SDS011;32506;52.826;-1.192;2022-08-20T03:43:29;4.03;;;0.82;;
46755;SDS011;32506;52.826;-1.192;2022-08-20T03:45:55;6.18;;;1.17;;
46755;SDS011;32506;52.826;-1.192;2022-08-20T03:48:20;2.47;;;0.70;;
46755;SDS011;32506;52.826;-1.192;2022-08-20T03:50:46;2.13;;;0.75;;
46755;SDS011;32506;52.826;-1.192;2022-08-20T03:53:15;3.97;;;0.93;;
46755;SDS011;32506;52.826;-1.192;2022-08-20T03:55:42;1.30;;;0.55;;
46755;SDS011;32506;52.826;-1.192;2022-08-20T03:58:12;3.13;;;0.70;;
46755;SDS011;32506;52.826;-1.192;2022-08-20T04:00:39;3.78;;;0.65;;
46755;SDS011;32506;52.826;-1.192;2022-08-20T04:03:07;3.05;;;0.90;;
46755;SDS011;32506;52.826;-1.192;2022-08-20T04:05:34;2.85;;;0.90;;
46755;SDS011;32506;52.826;-1.192;2022-08-20T04:08:04;3.58;;;0.90;;
46755;SDS011;32506;52.826;-1.192;2022-08-20T04:10:34;3.60;;;0.70;;
46755;SDS011;32506;52.826;-1.192;2022-08-20T04:13:01;2.13;;;0.57;;
46755;SDS011;32506;52.826;-1.192;2022-08-20T04:15:28;2.83;;;0.70;;
46755;SDS011;32506;52.826;-1.192;2022-08-20T04:17:53;3.25;;;0.85;;
46755;SDS011;32506;52.826;-1.192;2022-08-20T04:20:21;2.83;;;0.85;;
46755;SDS011;32506;52.826;-1.192;2022-08-20T04:22:50;5.43;;;1.20;;
46755;SDS011;32506;52.826;-1.192;2022-08-20T04:25:19;4.85;;;0.90;;
46755;SDS011;32506;52.826;-1.192;2022-08-20T04:27:46;3.92;;;0.70;;
46755;SDS011;32506;52.826;-1.192;2022-08-20T04:30:14;3.22;;;0.60;;
46755;SDS011;32506;52.826;-1.192;2022-08-20T04:32:41;4.35;;;0.77;;
46755;SDS011;32506;52.826;-1.192;2022-08-20T04:35:07;3.67;;;0.82;;
46755;SDS011;32506;52.826;-1.192;2022-08-20T04:37:36;3.47;;;0.60;;
46755;SDS011;32506;52.826;-1.192;2022-08-20T04:40:07;4.35;;;1.02;;
46755;SDS011;32506;52.826;-1.192;2022-08-20T04:42:54;3.85;;;1.05;;
46755;SDS011;32506;52.826;-1.192;2022-08-20T04:45:20;8.88;;;0.90;;
46755;SDS011;32506;52.826;-1.192;2022-08-20T04:47:46;3.97;;;0.70;;
46755;SDS011;32506;52.826;-1.192;2022-08-20T04:50:12;3.90;;;0.90;;
46755;SDS011;32506;52.826;-1.192;2022-08-20T04:52:38;7.55;;;1.00;;
46755;SDS011;32506;52.826;-1.192;2022-08-20T04:55:04;4.38;;;1.10;;
46755;SDS011;32506;52.826;-1.192;2022-08-20T04:57:31;6.18;;;1.10;;
46755;SDS011;32506;52.826;-1.192;2022-08-20T04:59:57;5.45;;;1.13;;
46755;SDS011;32506;52.826;-1.192;2022-08-20T05:02:23;4.78;;;0.77;;
46755;SDS011;32506;52.826;-1.192;2022-08-20T05:04:48;3.85;;;0.90;;
46755;SDS011;32506;52.826;-1.192;2022-08-20T05:07:14;6.03;;;1.88;;
46755;SDS011;32506;52.826;-1.192;2022-08-20T05:09:42;4.43;;;1.10;;
46755;SDS011;32506;52.826;-1.192;2022-08-20T05:12:08;5.10;;;0.93;;
46755;SDS011;32506;52.826;-1.192;2022-08-20T05:14:34;5.30;;;1.40;;
46755;SDS011;32506;52.826;-1.192;2022-08-20T05:17:03;4.22;;;1.58;;
46755;SDS011;32506;52.826;-1.192;2022-08-20T05:19:29;4.85;;;1.00;;
46755;SDS011;32506;52.826;-1.192;2022-08-20T05:21:56;8.05;;;1.35;;
46755;SDS011;32506;52.826;-1.192;2022-08-20T05:24:22;7.30;;;0.90;;
46755;SDS011;32506;52.826;-1.192;2022-08-20T05:26:47;3.58;;;0.95;;
46755;SDS011;32506;52.826;-1.192;2022-08-20T05:29:13;5.78;;;0.88;;
46755;SDS011;32506;52.826;-1.192;2022-08-20T05:31:38;4.10;;;0.88;;
46755;SDS011;32506;52.826;-1.192;2022-08-20T05:34:07;4.88;;;1.23;;
46755;SDS011;32506;52.826;-1.192;2022-08-20T05:36:35;5.45;;;1.63;;
46755;SDS011;32506;52.826;-1.192;2022-08-20T05:39:04;6.57;;;1.17;;
46755;SDS011;32506;52.826;-1.192;2022-08-20T05:41:29;4.25;;;0.63;;
46755;SDS011;32506;52.826;-1.192;2022-08-20T05:43:56;7.57;;;1.42;;
46755;SDS011;32506;52.826;-1.192;2022-08-20T05:46:25;8.38;;;1.77;;
46755;SDS011;32506;52.826;-1.192;2022-08-20T05:48:50;6.07;;;0.95;;
46755;SDS011;32506;52.826;-1.192;2022-08-20T05:51:16;5.38;;;1.00;;
46755;SDS011;32506;52.826;-1.192;2022-08-20T05:53:41;4.43;;;1.05;;
46755;SDS011;32506;52.826;-1.192;2022-08-20T05:56:07;5.15;;;1.10;;
46755;SDS011;32506;52.826;-1.192;2022-08-20T05:58:35;5.72;;;1.27;;
46755;SDS011;32506;52.826;-1.192;2022-08-20T06:01:02;8.07;;;1.20;;
46755;SDS011;32506;52.826;-1.192;2022-08-20T06:03:28;7.07;;;1.63;;
46755;SDS011;32506;52.826;-1.192;2022-08-20T06:06:12;6.38;;;1.95;;
46755;SDS011;32506;52.826;-1.192;2022-08-20T06:08:38;5.15;;;1.35;;
46755;SDS011;32506;52.826;-1.192;2022-08-20T06:11:04;6.55;;;1.08;;
46755;SDS011;32506;52.826;-1.192;2022-08-20T06:13:30;5.38;;;1.48;;
46755;SDS011;32506;52.826;-1.192;2022-08-20T06:15:56;3.83;;;0.93;;
46755;SDS011;32506;52.826;-1.192;2022-08-20T06:18:24;6.00;;;1.25;;
46755;SDS011;32506;52.826;-1.192;2022-08-20T06:20:49;7.63;;;1.92;;
46755;SDS011;32506;52.826;-1.192;2022-08-20T06:23:16;6.32;;;1.30;;
46755;SDS011;32506;52.826;-1.192;2022-08-20T06:25:42;7.07;;;1.30;;
46755;SDS011;32506;52.826;-1.192;2022-08-20T06:28:07;8.57;;;1.60;;
46755;SDS011;32506;52.826;-1.192;2022-08-20T06:30:34;9.07;;;1.30;;
46755;SDS011;32506;52.826;-1.192;2022-08-20T06:33:00;7.05;;;1.88;;
46755;SDS011;32506;52.826;-1.192;2022-08-20T06:35:25;6.38;;;1.17;;
46755;SDS011;32506;52.826;-1.192;2022-08-20T06:37:51;4.03;;;0.98;;
46755;SDS011;32506;52.826;-1.192;2022-08-20T06:40:21;8.18;;;1.33;;
46755;SDS011;32506;52.826;-1.192;2022-08-20T06:42:49;7.47;;;1.00;;
46755;SDS011;32506;52.826;-1.192;2022-08-20T06:45:19;7.45;;;1.40;;
46755;SDS011;32506;52.826;-1.192;2022-08-20T06:47:48;5.78;;;1.40;;
46755;SDS011;32506;52.826;-1.192;2022-08-20T06:50:16;5.60;;;1.17;;
46755;SDS011;32506;52.826;-1.192;2022-08-20T06:52:44;7.53;;;1.05;;
46755;SDS011;32506;52.826;-1.192;2022-08-20T06:55:11;7.18;;;1.33;;
46755;SDS011;32506;52.826;-1.192;2022-08-20T06:57:38;6.38;;;1.35;;
46755;SDS011;32506;52.826;-1.192;2022-08-20T07:00:05;8.88;;;1.65;;
46755;SDS011;32506;52.826;-1.192;2022-08-20T07:02:34;6.60;;;1.50;;
46755;SDS011;32506;52.826;-1.192;2022-08-20T07:05:00;5.75;;;1.70;;
46755;SDS011;32506;52.826;-1.192;2022-08-20T07:07:26;10.38;;;2.40;;
46755;SDS011;32506;52.826;-1.192;2022-08-20T07:09:59;5.45;;;1.30;;
46755;SDS011;32506;52.826;-1.192;2022-08-20T07:12:25;8.00;;;1.88;;
46755;SDS011;32506;52.826;-1.192;2022-08-20T07:14:50;9.25;;;1.52;;
46755;SDS011;32506;52.826;-1.192;2022-08-20T07:17:16;7.38;;;1.52;;
46755;SDS011;32506;52.826;-1.192;2022-08-20T07:19:41;6.38;;;1.83;;
46755;SDS011;32506;52.826;-1.192;2022-08-20T07:22:07;7.38;;;1.65;;
46755;SDS011;32506;52.826;-1.192;2022-08-20T07:24:32;11.60;;;1.60;;
46755;SDS011;32506;52.826;-1.192;2022-08-20T07:26:58;8.98;;;2.55;;
46755;SDS011;32506;52.826;-1.192;2022-08-20T07:29:24;8.18;;;1.23;;
46755;SDS011;32506;52.826;-1.192;2022-08-20T07:32:09;10.43;;;1.48;;
46755;SDS011;32506;52.826;-1.192;2022-08-20T07:34:53;8.75;;;1.73;;
46755;SDS011;32506;52.826;-1.192;2022-08-20T07:37:18;9.88;;;1.67;;
46755;SDS011;32506;52.826;-1.192;2022-08-20T07:39:47;9.25;;;1.30;;
46755;SDS011;32506;52.826;-1.192;2022-08-20T07:42:13;7.55;;;1.35;;
46755;SDS011;32506;52.826;-1.192;2022-08-20T07:44:39;8.93;;;1.48;;
46755;SDS011;32506;52.826;-1.192;2022-08-20T07:47:04;11.10;;;2.13;;
46755;SDS011;32506;52.826;-1.192;2022-08-20T07:49:30;8.05;;;2.28;;
46755;SDS011;32506;52.826;-1.192;2022-08-20T07:51:55;9.00;;;2.10;;
46755;SDS011;32506;52.826;-1.192;2022-08-20T07:54:21;11.02;;;1.95;;
46755;SDS011;32506;52.826;-1.192;2022-08-20T07:56:46;7.60;;;2.25;;
46755;SDS011;32506;52.826;-1.192;2022-08-20T07:59:12;5.65;;;1.33;;
46755;SDS011;32506;52.826;-1.192;2022-08-20T08:01:38;9.48;;;2.08;;
46755;SDS011;32506;52.826;-1.192;2022-08-20T08:04:03;9.18;;;1.67;;
46755;SDS011;32506;52.826;-1.192;2022-08-20T08:06:29;8.32;;;2.03;;
46755;SDS011;32506;52.826;-1.192;2022-08-20T08:09:00;5.22;;;1.83;;
46755;SDS011;32506;52.826;-1.192;2022-08-20T08:11:30;6.38;;;1.90;;
46755;SDS011;32506;52.826;-1.192;2022-08-20T08:13:57;7.40;;;1.70;;
46755;SDS011;32506;52.826;-1.192;2022-08-20T08:16:24;5.60;;;1.50;;
46755;SDS011;32506;52.826;-1.192;2022-08-20T08:18:50;8.18;;;1.92;;
46755;SDS011;32506;52.826;-1.192;2022-08-20T08:21:20;7.30;;;1.98;;
46755;SDS011;32506;52.826;-1.192;2022-08-20T08:23:46;6.75;;;1.52;;
46755;SDS011;32506;52.826;-1.192;2022-08-20T08:26:12;13.80;;;1.70;;
46755;SDS011;32506;52.826;-1.192;2022-08-20T08:28:39;8.35;;;1.40;;
46755;SDS011;32506;52.826;-1.192;2022-08-20T08:31:05;7.18;;;1.73;;
46755;SDS011;32506;52.826;-1.192;2022-08-20T08:33:31;8.40;;;1.83;;
46755;SDS011;32506;52.826;-1.192;2022-08-20T08:38:31;6.75;;;1.38;;
46755;SDS011;32506;52.826;-1.192;2022-08-20T08:41:14;8.32;;;1.63;;
46755;SDS011;32506;52.826;-1.192;2022-08-20T08:43:43;8.88;;;1.92;;
46755;SDS011;32506;52.826;-1.192;2022-08-20T08:46:14;6.72;;;1.40;;
46755;SDS011;32506;52.826;-1.192;2022-08-20T08:48:43;5.25;;;0.95;;
46755;SDS011;32506;52.826;-1.192;2022-08-20T08:51:12;8.05;;;2.15;;
46755;SDS011;32506;52.826;-1.192;2022-08-20T08:53:42;8.45;;;1.45;;
46755;SDS011;32506;52.826;-1.192;2022-08-20T08:56:11;6.75;;;1.55;;
46755;SDS011;32506;52.826;-1.192;2022-08-20T08:58:39;5.40;;;1.20;;
46755;SDS011;32506;52.826;-1.192;2022-08-20T09:01:12;7.88;;;1.30;;
46755;SDS011;32506;52.826;-1.192;2022-08-20T09:03:40;5.97;;;1.38;;
46755;SDS011;32506;52.826;-1.192;2022-08-20T09:06:14;5.07;;;1.08;;
46755;SDS011;32506;52.826;-1.192;2022-08-20T09:11:19;9.20;;;2.13;;
46755;SDS011;32506;52.826;-1.192;2022-08-20T09:13:46;7.00;;;1.30;;
46755;SDS011;32506;52.826;-1.192;2022-08-20T09:16:13;6.20;;;1.48;;
46755;SDS011;32506;52.826;-1.192;2022-08-20T09:18:39;10.38;;;1.80;;
46755;SDS011;32506;52.826;-1.192;2022-08-20T09:21:05;7.15;;;1.50;;
46755;SDS011;32506;52.826;-1.192;2022-08-20T09:23:32;8.40;;;1.38;;
46755;SDS011;32506;52.826;-1.192;2022-08-20T09:25:58;6.40;;;1.15;;
46755;SDS011;32506;52.826;-1.192;2022-08-20T09:28:24;4.15;;;1.30;;
46755;SDS011;32506;52.826;-1.192;2022-08-20T09:30:49;8.30;;;1.85;;
46755;SDS011;32506;52.826;-1.192;2022-08-20T09:33:15;5.00;;;1.42;;
46755;SDS011;32506;52.826;-1.192;2022-08-20T09:35:41;5.53;;;1.42;;
46755;SDS011;32506;52.826;-1.192;2022-08-20T09:38:08;7.78;;;1.42;;
46755;SDS011;32506;52.826;-1.192;2022-08-20T09:40:34;6.03;;;1.15;;
46755;SDS011;32506;52.826;-1.192;2022-08-20T09:42:59;9.27;;;1.80;;
46755;SDS011;32506;52.826;-1.192;2022-08-20T09:45:25;6.47;;;1.40;;
46755;SDS011;32506;52.826;-1.192;2022-08-20T09:47:50;7.05;;;2.15;;
46755;SDS011;32506;52.826;-1.192;2022-08-20T09:50:16;5.20;;;1.20;;
46755;SDS011;32506;52.826;-1.192;2022-08-20T09:52:43;8.82;;;1.20;;
46755;SDS011;32506;52.826;-1.192;2022-08-20T09:55:23;8.25;;;1.30;;
46755;SDS011;32506;52.826;-1.192;2022-08-20T09:57:58;5.15;;;1.27;;
46755;SDS011;32506;52.826;-1.192;2022-08-20T10:00:25;9.85;;;1.90;;
46755;SDS011;32506;52.826;-1.192;2022-08-20T10:02:50;6.53;;;1.40;;
46755;SDS011;32506;52.826;-1.192;2022-08-20T10:05:16;9.20;;;2.28;;
46755;SDS011;32506;52.826;-1.192;2022-08-20T10:07:41;8.55;;;2.22;;
46755;SDS011;32506;52.826;-1.192;2022-08-20T10:10:08;9.15;;;2.28;;
46755;SDS011;32506;52.826;-1.192;2022-08-20T10:12:35;7.63;;;1.55;;
46755;SDS011;32506;52.826;-1.192;2022-08-20T10:15:01;9.13;;;1.92;;
46755;SDS011;32506;52.826;-1.192;2022-08-20T10:17:27;7.22;;;1.58;;
46755;SDS011;32506;52.826;-1.192;2022-08-20T10:19:52;8.52;;;1.77;;
46755;SDS011;32506;52.826;-1.192;2022-08-20T10:22:18;7.18;;;1.50;;
46755;SDS011;32506;52.826;-1.192;2022-08-20T10:24:43;8.52;;;1.92;;
46755;SDS011;32506;52.826;-1.192;2022-08-20T10:27:09;9.98;;;2.08;;
46755;SDS011;32506;52.826;-1.192;2022-08-20T10:29:34;8.77;;;2.35;;
46755;SDS011;32506;52.826;-1.192;2022-08-20T10:32:10;7.60;;;1.70;;
46755;SDS011;32506;52.826;-1.192;2022-08-20T10:34:38;7.30;;;1.45;;
46755;SDS011;32506;52.826;-1.192;2022-08-20T10:37:06;6.30;;;1.83;;
46755;SDS011;32506;52.826;-1.192;2022-08-20T10:39:32;6.72;;;1.55;;
46755;SDS011;32506;52.826;-1.192;2022-08-20T10:41:59;6.07;;;1.90;;
46755;SDS011;32506;52.826;-1.192;2022-08-20T10:44:24;6.63;;;1.45;;
46755;SDS011;32506;52.826;-1.192;2022-08-20T10:46:50;6.10;;;1.38;;
46755;SDS011;32506;52.826;-1.192;2022-08-20T10:49:15;5.10;;;1.60;;
46755;SDS011;32506;52.826;-1.192;2022-08-20T10:51:41;7.00;;;1.48;;
46755;SDS011;32506;52.826;-1.192;2022-08-20T10:54:06;5.07;;;1.10;;
46755;SDS011;32506;52.826;-1.192;2022-08-20T10:56:32;5.57;;;1.60;;
46755;SDS011;32506;52.826;-1.192;2022-08-20T10:58:57;4.50;;;1.30;;
46755;SDS011;32506;52.826;-1.192;2022-08-20T11:01:23;6.82;;;1.65;;
46755;SDS011;32506;52.826;-1.192;2022-08-20T11:03:48;5.07;;;1.50;;
46755;SDS011;32506;52.826;-1.192;2022-08-20T11:06:14;7.53;;;1.90;;
46755;SDS011;32506;52.826;-1.192;2022-08-20T11:08:39;3.40;;;1.10;;
46755;SDS011;32506;52.826;-1.192;2022-08-20T11:11:05;7.18;;;1.80;;
46755;SDS011;32506;52.826;-1.192;2022-08-20T11:13:31;6.75;;;1.60;;
46755;SDS011;32506;52.826;-1.192;2022-08-20T11:15:58;5.47;;;1.55;;
46755;SDS011;32506;52.826;-1.192;2022-08-20T11:18:25;7.15;;;1.60;;
46755;SDS011;32506;52.826;-1.192;2022-08-20T11:20:51;4.95;;;1.15;;
46755;SDS011;32506;52.826;-1.192;2022-08-20T11:23:16;4.95;;;1.25;;
46755;SDS011;32506;52.826;-1.192;2022-08-20T11:25:42;5.18;;;1.60;;
46755;SDS011;32506;52.826;-1.192;2022-08-20T11:28:07;3.83;;;1.45;;
46755;SDS011;32506;52.826;-1.192;2022-08-20T11:30:34;5.15;;;1.50;;
46755;SDS011;32506;52.826;-1.192;2022-08-20T11:33:01;5.55;;;1.40;;
46755;SDS011;32506;52.826;-1.192;2022-08-20T11:35:28;3.20;;;0.95;;
46755;SDS011;32506;52.826;-1.192;2022-08-20T11:37:55;4.75;;;1.42;;
46755;SDS011;32506;52.826;-1.192;2022-08-20T11:40:22;4.15;;;1.40;;
46755;SDS011;32506;52.826;-1.192;2022-08-20T11:42:49;4.47;;;1.17;;
46755;SDS011;32506;52.826;-1.192;2022-08-20T11:45:14;5.68;;;1.30;;
46755;SDS011;32506;52.826;-1.192;2022-08-20T11:47:40;7.55;;;1.65;;
46755;SDS011;32506;52.826;-1.192;2022-08-20T11:50:08;5.40;;;1.20;;
46755;SDS011;32506;52.826;-1.192;2022-08-20T11:52:36;2.88;;;1.38;;
46755;SDS011;32506;52.826;-1.192;2022-08-20T11:55:02;8.43;;;1.67;;
46755;SDS011;32506;52.826;-1.192;2022-08-20T11:57:29;5.97;;;1.33;;
46755;SDS011;32506;52.826;-1.192;2022-08-20T11:59:56;4.63;;;1.35;;
46755;SDS011;32506;52.826;-1.192;2022-08-20T12:02:23;4.22;;;1.20;;
46755;SDS011;32506;52.826;-1.192;2022-08-20T12:04:50;3.42;;;1.33;;
46755;SDS011;32506;52.826;-1.192;2022-08-20T12:07:22;5.60;;;1.33;;
46755;SDS011;32506;52.826;-1.192;2022-08-20T12:09:49;4.90;;;1.27;;
46755;SDS011;32506;52.826;-1.192;2022-08-20T12:12:15;5.22;;;1.50;;
46755;SDS011;32506;52.826;-1.192;2022-08-20T12:14:41;6.13;;;1.60;;
46755;SDS011;32506;52.826;-1.192;2022-08-20T12:17:10;5.00;;;1.30;;
46755;SDS011;32506;52.826;-1.192;2022-08-20T12:19:38;5.07;;;1.50;;
46755;SDS011;32506;52.826;-1.192;2022-08-20T12:22:05;4.57;;;1.17;;
46755;SDS011;32506;52.826;-1.192;2022-08-20T12:24:30;4.72;;;1.40;;
46755;SDS011;32506;52.826;-1.192;2022-08-20T12:27:06;4.57;;;1.50;;
46755;SDS011;32506;52.826;-1.192;2022-08-20T12:29:35;5.60;;;1.75;;
46755;SDS011;32506;52.826;-1.192;2022-08-20T12:32:02;4.75;;;1.45;;
46755;SDS011;32506;52.826;-1.192;2022-08-20T12:34:30;4.45;;;1.25;;
46755;SDS011;32506;52.826;-1.192;2022-08-20T12:36:59;4.35;;;1.40;;
46755;SDS011;32506;52.826;-1.192;2022-08-20T12:39:26;4.45;;;1.30;;
46755;SDS011;32506;52.826;-1.192;2022-08-20T12:41:55;6.40;;;1.40;;
46755;SDS011;32506;52.826;-1.192;2022-08-20T12:44:21;5.93;;;1.63;;
46755;SDS011;32506;52.826;-1.192;2022-08-20T12:46:46;6.53;;;2.00;;
46755;SDS011;32506;52.826;-1.192;2022-08-20T12:49:12;6.63;;;1.65;;
46755;SDS011;32506;52.826;-1.192;2022-08-20T12:51:37;8.05;;;1.90;;
46755;SDS011;32506;52.826;-1.192;2022-08-20T12:54:03;7.22;;;1.90;;
46755;SDS011;32506;52.826;-1.192;2022-08-20T12:56:29;5.32;;;1.30;;
46755;SDS011;32506;52.826;-1.192;2022-08-20T12:58:54;6.95;;;1.38;;
46755;SDS011;32506;52.826;-1.192;2022-08-20T13:01:20;3.25;;;1.30;;
46755;SDS011;32506;52.826;-1.192;2022-08-20T13:03:45;5.00;;;1.60;;
46755;SDS011;32506;52.826;-1.192;2022-08-20T13:06:11;5.20;;;1.70;;
46755;SDS011;32506;52.826;-1.192;2022-08-20T13:08:36;4.22;;;1.30;;
46755;SDS011;32506;52.826;-1.192;2022-08-20T13:11:02;6.70;;;1.48;;
46755;SDS011;32506;52.826;-1.192;2022-08-20T13:13:27;5.43;;;1.50;;
46755;SDS011;32506;52.826;-1.192;2022-08-20T13:15:53;5.45;;;1.60;;
46755;SDS011;32506;52.826;-1.192;2022-08-20T13:18:18;3.50;;;1.13;;
46755;SDS011;32506;52.826;-1.192;2022-08-20T13:20:44;4.90;;;1.38;;
46755;SDS011;32506;52.826;-1.192;2022-08-20T13:23:10;4.40;;;1.30;;
46755;SDS011;32506;52.826;-1.192;2022-08-20T13:25:35;6.90;;;1.98;;
46755;SDS011;32506;52.826;-1.192;2022-08-20T13:28:01;7.15;;;1.50;;
46755;SDS011;32506;52.826;-1.192;2022-08-20T13:30:28;5.35;;;1.23;;
46755;SDS011;32506;52.826;-1.192;2022-08-20T13:32:55;4.90;;;1.50;;
46755;SDS011;32506;52.826;-1.192;2022-08-20T13:35:20;5.05;;;1.38;;
46755;SDS011;32506;52.826;-1.192;2022-08-20T13:37:47;4.53;;;1.20;;
46755;SDS011;32506;52.826;-1.192;2022-08-20T13:40:14;7.30;;;1.52;;
46755;SDS011;32506;52.826;-1.192;2022-08-20T13:42:40;4.05;;;1.30;;
46755;SDS011;32506;52.826;-1.192;2022-08-20T13:45:05;6.10;;;1.80;;
46755;SDS011;32506;52.826;-1.192;2022-08-20T13:47:33;7.32;;;1.70;;
46755;SDS011;32506;52.826;-1.192;2022-08-20T13:50:01;4.90;;;1.58;;
46755;SDS011;32506;52.826;-1.192;2022-08-20T13:52:30;3.83;;;1.58;;
46755;SDS011;32506;52.826;-1.192;2022-08-20T13:54:56;5.88;;;1.73;;
46755;SDS011;32506;52.826;-1.192;2022-08-20T13:57:22;8.35;;;1.95;;
46755;SDS011;32506;52.826;-1.192;2022-08-20T13:59:50;5.75;;;1.85;;
46755;SDS011;32506;52.826;-1.192;2022-08-20T14:02:18;7.70;;;2.10;;
46755;SDS011;32506;52.826;-1.192;2022-08-20T14:04:44;5.65;;;1.65;;
46755;SDS011;32506;52.826;-1.192;2022-08-20T14:07:12;5.70;;;1.63;;
46755;SDS011;32506;52.826;-1.192;2022-08-20T14:09:40;6.32;;;1.85;;
46755;SDS011;32506;52.826;-1.192;2022-08-20T14:12:09;6.05;;;1.25;;
46755;SDS011;32506;52.826;-1.192;2022-08-20T14:14:37;4.18;;;1.98;;
46755;SDS011;32506;52.826;-1.192;2022-08-20T14:17:17;8.00;;;1.85;;
46755;SDS011;32506;52.826;-1.192;2022-08-20T14:19:52;5.97;;;1.63;;
46755;SDS011;32506;52.826;-1.192;2022-08-20T14:22:20;4.75;;;1.58;;
46755;SDS011;32506;52.826;-1.192;2022-08-20T14:24:46;6.88;;;1.90;;
46755;SDS011;32506;52.826;-1.192;2022-08-20T14:27:13;7.50;;;2.15;;
46755;SDS011;32506;52.826;-1.192;2022-08-20T14:29:41;7.03;;;1.80;;
46755;SDS011;32506;52.826;-1.192;2022-08-20T14:32:07;7.82;;;1.38;;
46755;SDS011;32506;52.826;-1.192;2022-08-20T14:34:33;3.72;;;1.70;;
46755;SDS011;32506;52.826;-1.192;2022-08-20T14:39:39;5.85;;;1.65;;
46755;SDS011;32506;52.826;-1.192;2022-08-20T14:42:05;6.03;;;1.75;;
46755;SDS011;32506;52.826;-1.192;2022-08-20T14:44:30;5.22;;;1.50;;
46755;SDS011;32506;52.826;-1.192;2022-08-20T14:46:56;5.72;;;1.58;;
46755;SDS011;32506;52.826;-1.192;2022-08-20T14:49:22;3.80;;;1.35;;
46755;SDS011;32506;52.826;-1.192;2022-08-20T14:51:48;5.88;;;1.20;;
46755;SDS011;32506;52.826;-1.192;2022-08-20T14:54:13;7.28;;;1.77;;